Wokal Field Glasgow International Airport Glasgow US
ICAO: KGGW
IATA: GGW
Category: Medium
Scheduled Services: Yes

Elevation: 2296 ft
TransAlt. 18000 ft.

Airport Communications:
ASOS:135.175
SALT LAKE CITY CNTR:126.85
GREAT FALLS RDO:122.25
CTAF/UNICOM:122.8

KGGW Zoom In..

Runways:

(A) RW 08 length 5000 ft width 75 ft
---- / hdg 79

(B) RW 12 length 5002 ft width 100 ft
---- / hdg 123

(C) RW 26 length 5000 ft width 75 ft
---- / hdg 259

(D) RW 30 length 5002 ft width 100 ft
---- / hdg 303

Location; KGGW
Day. 20 / Time. 19.53 Zulu
* Altimeter: 29.96
* Temperature: 31° c. 87.8°f.
* Wind from: 130° Speed 14 kn with Gusts up to 21 kn.
Dewpoint: 09° c.
Visibility: 10 Statute Miles.
Clouds: Clear (automated report).

KGGW 201953Z AUTO 13014G21KT 10SM CLR 31/09 A2996 RMK AO2 SLP133 T03110094


Wind From 130°
Speed 14 kn.

 
 
jpsmedia.com for Web Design worldairports.se 2018   terms of use